Time;durP1;ratioP1;P1;durP2;ratioP2;P2;SDS_P1;SDS_P2;PMS_P1;PMS_P2;Temp;Humidity;BMP_temperature;BMP_pressure;BME280_temperature;BME280_humidity;BME280_pressure;Samples;Min_cycle;Max_cycle;Signal;HPM_P1;HPM_P2
2021/11/30 00:00:16;;;;;;;24.87;11.40;;;;;;;3.57;73.05;99094.50;126343;1099;104255;-82
2021/11/30 00:03:07;;;;;;;25.97;10.57;;;;;;;3.53;73.54;99097.78;126281;1099;104309;-81
2021/11/30 00:05:38;;;;;;;21.53;10.17;;;;;;;3.49;73.07;99093.28;126355;1099;104154;-83
2021/11/30 00:08:09;;;;;;;22.70;10.53;;;;;;;3.41;73.36;99078.31;126242;1099;104271;-81
2021/11/30 00:10:49;;;;;;;25.57;10.37;;;;;;;3.37;73.36;99076.40;126286;1099;104197;-82
2021/11/30 00:13:22;;;;;;;24.30;10.43;;;;;;;3.33;73.63;99073.62;126338;1099;104153;-82
2021/11/30 00:15:55;;;;;;;22.87;9.93;;;;;;;3.31;72.81;99064.91;126335;1099;104159;-82
2021/11/30 00:18:32;;;;;;;21.80;10.20;;;;;;;3.30;72.88;99071.77;126170;1099;104245;-82
2021/11/30 00:21:04;;;;;;;24.97;10.33;;;;;;;3.30;72.94;99060.52;126289;1099;104162;-81
2021/11/30 00:23:36;;;;;;;25.77;9.90;;;;;;;3.31;73.00;99064.91;126335;1099;104287;-82
2021/11/30 00:26:08;;;;;;;22.20;10.40;;;;;;;3.34;73.07;99067.62;126308;1099;104304;-83
2021/11/30 00:28:39;;;;;;;24.53;11.30;;;;;;;3.32;72.70;99064.05;126302;1099;105502;-82
2021/11/30 00:31:10;;;;;;;27.47;10.50;;;;;;;3.34;73.09;99072.81;126346;1099;104172;-82
2021/11/30 00:33:42;;;;;;;25.07;10.07;;;;;;;3.36;73.14;99076.34;126342;1099;104608;-82
2021/11/30 00:36:14;;;;;;;25.30;11.10;;;;;;;3.30;73.02;99079.55;126394;1098;104251;-82
2021/11/30 00:38:45;;;;;;;25.57;11.67;;;;;;;3.29;73.03;99080.39;126283;1099;104245;-80
2021/11/30 00:41:16;;;;;;;25.17;10.60;;;;;;;3.28;73.40;99080.33;126318;1099;104214;-82
2021/11/30 00:43:48;;;;;;;27.13;10.73;;;;;;;3.33;73.02;99102.14;126357;1099;104140;-82
2021/11/30 00:46:23;;;;;;;25.03;11.27;;;;;;;3.33;72.74;99110.79;126355;1099;104158;-82
2021/11/30 00:48:54;;;;;;;25.40;11.13;;;;;;;3.33;72.91;99112.52;126292;1099;104153;-82
2021/11/30 00:51:25;;;;;;;25.47;10.40;;;;;;;3.36;72.86;99112.64;126309;1099;104169;-82
2021/11/30 00:53:56;;;;;;;24.80;11.13;;;;;;;3.39;73.34;99115.36;126340;1099;104156;-80
2021/11/30 00:56:27;;;;;;;22.23;11.30;;;;;;;3.40;73.49;99117.14;126342;1099;104165;-81
2021/11/30 00:58:57;;;;;;;24.03;11.63;;;;;;;3.44;73.02;99103.47;126286;1099;104229;-82
2021/11/30 01:01:31;;;;;;;29.87;12.00;;;;;;;3.46;72.74;99106.12;126277;1099;104287;-82
2021/11/30 01:04:06;;;;;;;25.47;11.83;;;;;;;3.43;72.73;99099.13;126269;1099;104143;-80
2021/11/30 01:06:37;;;;;;;25.17;11.10;;;;;;;3.41;72.81;99100.74;126368;1099;102816;-83
2021/11/30 01:09:10;;;;;;;25.17;11.43;;;;;;;3.32;72.75;99109.05;126282;1099;104159;-82
2021/11/30 01:11:41;;;;;;;25.53;11.37;;;;;;;3.20;72.98;99101.62;126304;1099;104274;-83
2021/11/30 01:14:12;;;;;;;25.10;11.27;;;;;;;3.09;72.86;99094.22;126355;1099;104156;-82
2021/11/30 01:16:42;;;;;;;27.53;11.33;;;;;;;2.99;72.40;99111.97;126291;1099;104172;-82
2021/11/30 01:19:15;;;;;;;25.60;11.97;;;;;;;2.98;72.95;99117.08;126322;1099;104233;-82
2021/11/30 01:21:47;;;;;;;24.93;11.50;;;;;;;3.01;72.51;99135.36;126359;1099;104874;-83
2021/11/30 01:24:17;;;;;;;26.43;11.30;;;;;;;3.04;73.21;99148.45;126292;1099;102045;-82
2021/11/30 01:26:48;;;;;;;27.20;12.27;;;;;;;3.09;73.16;99153.84;126342;1098;104245;-81
2021/11/30 01:29:19;;;;;;;30.23;12.87;;;;;;;3.12;72.75;99162.63;126281;1099;104251;-83
2021/11/30 01:31:50;;;;;;;31.53;12.53;;;;;;;3.16;72.62;99161.91;126341;1099;104159;-83
2021/11/30 01:34:21;;;;;;;24.70;12.70;;;;;;;3.21;73.15;99162.11;126343;1099;104570;-81
2021/11/30 01:36:52;;;;;;;27.77;11.57;;;;;;;3.23;73.40;99165.69;126339;1099;104143;-81
2021/11/30 01:39:23;;;;;;;24.97;12.70;;;;;;;3.23;73.14;99158.78;126284;1099;104158;-82
2021/11/30 01:41:55;;;;;;;24.50;12.00;;;;;;;3.25;72.84;99164.03;126332;1099;104331;-80
2021/11/30 01:44:38;;;;;;;27.17;11.87;;;;;;;3.22;72.65;99159.59;126326;1099;104251;-82
2021/11/30 01:47:23;;;;;;;27.23;12.67;;;;;;;3.22;72.61;99156.13;126278;1099;104239;-80
2021/11/30 01:49:53;;;;;;;;;;;;;;;3.20;72.72;99150.88;126343;1099;104249;-82
2021/11/30 01:52:24;;;;;;;32.10;13.30;;;;;;;3.21;73.13;99172.48;126384;1099;104283;-82
2021/11/30 01:54:55;;;;;;;25.77;12.97;;;;;;;3.22;73.43;99174.27;126323;1099;104143;-82
2021/11/30 01:57:27;;;;;;;25.23;12.27;;;;;;;3.23;72.77;99182.11;126358;1099;104182;-81
2021/11/30 01:59:58;;;;;;;26.53;11.83;;;;;;;3.25;73.47;99182.18;126277;1099;104226;-82
2021/11/30 02:02:29;;;;;;;27.10;11.77;;;;;;;3.26;73.26;99176.19;126314;1099;104153;-82
2021/11/30 02:05:02;;;;;;;;;;;;;;;3.26;72.75;99180.46;126406;1099;104779;-83
2021/11/30 02:07:34;;;;;;;28.30;11.87;;;;;;;3.26;72.81;99183.05;126291;1099;104310;-82
2021/11/30 02:10:08;;;;;;;24.83;11.77;;;;;;;3.25;73.15;99195.14;126309;1099;104284;-82
2021/11/30 02:12:42;;;;;;;26.50;11.63;;;;;;;3.23;72.88;99189.89;126346;1099;104210;-82
2021/11/30 02:15:14;;;;;;;24.40;11.73;;;;;;;3.23;73.21;99187.30;126339;1099;104204;-83
2021/11/30 02:17:45;;;;;;;27.43;12.20;;;;;;;3.23;73.20;99199.39;126309;1098;104194;-82
2021/11/30 02:20:16;;;;;;;26.13;11.67;;;;;;;3.23;73.00;99200.27;126291;1099;104149;-81
2021/11/30 02:22:50;;;;;;;24.77;11.23;;;;;;;3.24;72.72;99196.86;126341;1099;104242;-81
2021/11/30 02:25:22;;;;;;;26.57;11.33;;;;;;;3.24;72.45;99198.55;126330;1099;104140;-82
2021/11/30 02:27:54;;;;;;;26.93;11.40;;;;;;;3.24;72.71;99199.45;126356;1099;104239;-83
2021/11/30 02:30:24;;;;;;;27.70;12.27;;;;;;;3.26;73.21;99207.30;126268;1099;104153;-80
2021/11/30 02:32:55;;;;;;;26.53;11.77;;;;;;;3.28;72.76;99205.65;126293;1099;104592;-82
2021/11/30 02:35:26;;;;;;;22.63;10.47;;;;;;;3.28;72.42;99216.02;126310;1099;104284;-81
2021/11/30 02:37:58;;;;;;;23.40;11.40;;;;;;;3.25;72.46;99215.88;126323;1099;104252;-81
2021/11/30 02:40:30;;;;;;;25.53;10.97;;;;;;;3.23;72.82;99217.53;126247;1099;104281;-81
2021/11/30 02:43:00;;;;;;;24.23;11.50;;;;;;;3.24;72.84;99219.28;126332;1099;104209;-81
2021/11/30 02:45:32;;;;;;;23.30;11.10;;;;;;;3.26;72.71;99211.58;126325;1097;104354;-82
2021/11/30 02:48:03;;;;;;;24.30;11.10;;;;;;;3.25;73.13;99202.92;126340;1099;104143;-82
2021/11/30 02:50:41;;;;;;;27.57;11.63;;;;;;;3.26;72.57;99207.30;126260;1099;105265;-82
2021/11/30 02:53:20;;;;;;;22.13;11.07;;;;;;;3.22;72.47;99206.25;126349;1099;104159;-82
2021/11/30 02:55:51;;;;;;;25.37;11.37;;;;;;;3.20;72.78;99201.84;126357;1099;104299;-82
2021/11/30 02:58:22;;;;;;;28.40;12.07;;;;;;;3.16;73.13;99205.98;126303;1099;104341;-82
2021/11/30 03:00:53;;;;;;;22.20;10.55;;;;;;;3.13;72.98;99205.88;126303;1099;104155;-81
2021/11/30 03:03:26;;;;;;;26.63;11.40;;;;;;;3.12;73.00;99203.22;126347;1099;104149;-81
2021/11/30 03:05:59;;;;;;;26.10;12.82;;;;;;;3.10;73.05;99207.42;126350;1099;104213;-82
2021/11/30 03:08:30;;;;;;;23.37;11.70;;;;;;;3.06;72.85;99209.00;126365;1098;104169;-82
2021/11/30 03:11:01;;;;;;;27.83;12.50;;;;;;;3.01;72.30;99213.10;126272;1099;104165;-82
2021/11/30 03:13:32;;;;;;;26.03;11.97;;;;;;;3.00;73.05;99208.73;126366;1099;104188;-80
2021/11/30 03:16:03;;;;;;;25.60;12.60;;;;;;;2.98;72.92;99200.88;126361;1099;104191;-82
2021/11/30 03:18:37;;;;;;;25.70;12.93;;;;;;;2.93;72.69;99193.70;126355;1099;104188;-83
2021/11/30 03:21:08;;;;;;;26.00;11.33;;;;;;;2.87;72.87;99186.56;126293;1099;104195;-82
2021/11/30 03:23:41;;;;;;;28.03;13.57;;;;;;;2.84;72.62;99191.61;126321;1099;104137;-82
2021/11/30 03:26:12;;;;;;;27.25;13.20;;;;;;;2.86;72.37;99200.33;126344;1099;104730;-81
2021/11/30 03:28:43;;;;;;;33.40;14.67;;;;;;;2.89;72.90;99205.65;126334;1099;104239;-82
2021/11/30 03:31:32;;;;;;;28.10;14.07;;;;;;;2.92;73.07;99202.32;126265;1099;105525;-81
2021/11/30 03:34:05;;;;;;;31.17;14.63;;;;;;;2.93;72.43;99196.30;126328;1099;104273;-81
2021/11/30 03:36:38;;;;;;;27.87;13.27;;;;;;;2.91;72.65;99193.64;126298;1099;104300;-82
2021/11/30 03:39:13;;;;;;;27.10;12.23;;;;;;;2.89;72.37;99200.47;126383;1099;104142;-82
2021/11/30 03:41:46;;;;;;;25.80;12.53;;;;;;;2.83;73.18;99195.88;126151;1099;104319;-82
2021/11/30 03:44:17;;;;;;;28.83;13.73;;;;;;;2.74;72.36;99195.46;125282;1100;104342;-81
2021/11/30 03:46:50;;;;;;;27.10;13.23;;;;;;;2.68;72.83;99205.53;125327;1099;104290;-82
2021/11/30 03:49:22;;;;;;;29.07;12.83;;;;;;;2.61;72.26;99209.55;125207;1099;104453;-82
2021/11/30 03:51:53;;;;;;;25.63;12.87;;;;;;;2.56;72.30;99216.23;125254;1099;104219;-80
2021/11/30 03:54:24;;;;;;;28.00;13.40;;;;;;;2.50;72.55;99216.82;125263;1099;104307;-81
2021/11/30 03:56:56;;;;;;;27.30;14.10;;;;;;;2.45;72.29;99215.73;125253;1102;104184;-82
2021/11/30 03:59:27;;;;;;;25.90;13.77;;;;;;;2.44;72.62;99206.17;125220;1102;104647;-82
2021/11/30 04:01:58;;;;;;;25.57;12.80;;;;;;;2.42;73.32;99202.64;125241;1102;104322;-82
2021/11/30 04:04:33;;;;;;;28.20;13.20;;;;;;;2.40;72.67;99199.09;125355;1102;104204;-82
2021/11/30 04:07:04;;;;;;;28.30;13.80;;;;;;;2.34;72.40;99198.80;125245;1102;104341;-82
2021/11/30 04:09:35;;;;;;;25.37;13.27;;;;;;;2.32;72.80;99205.59;125319;1102;104201;-81
2021/11/30 04:12:08;;;;;;;29.20;14.60;;;;;;;2.30;72.96;99197.75;125287;1102;104281;-81
2021/11/30 04:14:39;;;;;;;27.77;14.07;;;;;;;2.31;72.25;99203.84;125305;1099;104289;-83
2021/11/30 04:17:09;;;;;;;27.37;14.37;;;;;;;2.29;72.89;99201.17;126390;1098;104222;-82
2021/11/30 04:19:40;;;;;;;30.00;14.20;;;;;;;2.29;72.64;99202.86;126272;1099;104201;-81
2021/11/30 04:22:11;;;;;;;30.53;14.90;;;;;;;2.29;72.99;99208.94;126257;1099;104220;-81
2021/11/30 04:24:42;;;;;;;29.33;13.77;;;;;;;2.31;72.97;99215.06;126308;1099;104163;-82
2021/11/30 04:27:13;;;;;;;24.67;12.73;;;;;;;2.31;73.06;99219.37;126259;1099;104300;-81
2021/11/30 04:29:45;;;;;;;27.40;12.77;;;;;;;2.31;73.31;99229.72;126280;1099;104232;-82
2021/11/30 04:32:16;;;;;;;27.43;13.20;;;;;;;2.32;72.89;99226.30;126255;1099;104144;-81
2021/11/30 04:34:47;;;;;;;24.67;12.47;;;;;;;2.34;72.79;99235.05;126347;1099;104137;-82
2021/11/30 04:37:21;;;;;;;27.33;13.50;;;;;;;2.38;72.74;99238.66;126344;1099;104487;-82
2021/11/30 04:39:53;;;;;;;26.70;12.98;;;;;;;2.44;72.81;99241.55;126359;1099;104184;-82
2021/11/30 04:42:26;;;;;;;28.50;13.80;;;;;;;2.51;73.06;99244.50;126194;1099;104176;-81
2021/11/30 04:45:04;;;;;;;26.67;12.87;;;;;;;2.58;72.98;99250.85;126252;1099;104146;-80
2021/11/30 04:47:37;;;;;;;29.23;13.37;;;;;;;2.66;73.53;99256.39;126319;1099;104625;-81
2021/11/30 04:50:15;;;;;;;27.93;13.15;;;;;;;2.69;72.80;99256.54;126370;1098;104213;-81
2021/11/30 04:52:48;;;;;;;29.43;13.10;;;;;;;2.76;72.73;99257.70;126255;1099;104235;-83
2021/11/30 04:55:23;;;;;;;25.60;12.53;;;;;;;2.83;73.19;99260.66;126338;1099;104152;-82
2021/11/30 04:57:59;;;;;;;24.60;12.57;;;;;;;2.88;72.71;99256.59;126331;1099;104147;-82
2021/11/30 05:00:32;;;;;;;29.25;13.13;;;;;;;2.93;73.29;99258.48;126345;1099;104171;-82
2021/11/30 05:03:03;;;;;;;29.20;14.90;;;;;;;2.96;73.24;99258.62;126320;1099;104140;-81
2021/11/30 05:05:34;;;;;;;27.97;12.40;;;;;;;2.99;73.17;99253.59;126337;1099;104364;-82
2021/11/30 05:08:05;;;;;;;22.17;10.80;;;;;;;3.02;73.43;99251.14;126356;1097;104239;-83
2021/11/30 05:10:37;;;;;;;23.43;10.77;;;;;;;3.03;73.54;99256.39;126334;1099;104124;-82
2021/11/30 05:13:08;;;;;;;26.67;11.67;;;;;;;3.04;73.27;99259.89;126272;1099;104178;-82
2021/11/30 05:15:38;;;;;;;25.80;11.73;;;;;;;3.03;73.24;99258.98;126350;1099;104169;-83
2021/11/30 05:18:09;;;;;;;24.50;10.60;;;;;;;3.02;72.73;99261.50;126172;1099;104756;-82
2021/11/30 05:20:40;;;;;;;25.03;10.87;;;;;;;2.98;73.02;99259.61;126160;1099;104202;-81
2021/11/30 05:23:14;;;;;;;23.33;11.47;;;;;;;2.95;73.18;99257.75;126166;1099;104694;-82
2021/11/30 05:25:44;;;;;;;24.95;10.58;;;;;;;2.95;73.32;99256.88;126271;1099;104185;-82
2021/11/30 05:28:15;;;;;;;27.70;11.50;;;;;;;2.94;72.57;99265.45;126305;1098;104418;-82
2021/11/30 05:30:46;;;;;;;26.47;11.17;;;;;;;2.93;72.49;99277.53;126311;1099;104070;-80
2021/11/30 05:33:17;;;;;;;26.63;11.67;;;;;;;2.97;73.23;99275.96;126301;1098;104551;-81
2021/11/30 05:35:48;;;;;;;26.37;12.10;;;;;;;3.00;72.76;99264.02;126184;1099;112028;-80
2021/11/30 05:38:19;;;;;;;28.23;12.50;;;;;;;3.07;73.43;99257.44;126263;1099;104200;-79
2021/11/30 05:40:50;;;;;;;31.07;13.47;;;;;;;3.11;73.43;99267.11;126246;1099;104178;-80
2021/11/30 05:43:22;;;;;;;23.37;11.10;;;;;;;3.15;73.04;99274.22;126069;1099;102169;-80
2021/11/30 05:45:53;;;;;;;25.60;10.57;;;;;;;3.14;73.22;99271.55;126265;1099;104198;-80
2021/11/30 05:48:24;;;;;;;22.03;10.27;;;;;;;3.11;73.08;99268.83;126311;1099;104165;-79
2021/11/30 05:50:55;;;;;;;23.63;11.30;;;;;;;3.10;73.11;99272.22;126281;1099;104165;-79
2021/11/30 05:53:25;;;;;;;24.40;10.87;;;;;;;3.09;73.11;99279.13;126288;1098;104274;-79
2021/11/30 05:55:58;;;;;;;23.57;10.63;;;;;;;3.10;73.10;99282.59;126297;1098;104268;-80
2021/11/30 05:58:34;;;;;;;28.17;11.87;;;;;;;3.11;73.16;99287.84;126285;1099;104241;-79
2021/11/30 06:01:10;;;;;;;26.33;12.03;;;;;;;3.13;72.52;99281.05;126164;1099;104233;-79
2021/11/30 06:03:56;;;;;;;26.70;12.00;;;;;;;3.13;72.49;99273.27;126179;1099;104214;-79
2021/11/30 06:06:29;;;;;;;24.63;11.30;;;;;;;3.19;72.83;99280.42;126171;1098;119295;-80
2021/11/30 06:09:03;;;;;;;21.40;10.43;;;;;;;3.23;72.79;99282.34;126181;1099;104142;-80
2021/11/30 06:11:35;;;;;;;23.33;11.57;;;;;;;3.27;72.62;99273.87;126242;1099;104142;-80
2021/11/30 06:14:06;;;;;;;26.53;12.00;;;;;;;3.30;72.16;99270.53;126289;1099;104159;-81
2021/11/30 06:16:36;;;;;;;29.87;14.20;;;;;;;3.33;72.78;99271.55;126160;1099;104146;-80
2021/11/30 06:19:08;;;;;;;32.17;15.60;;;;;;;3.37;72.71;99277.78;126144;1099;104338;-79
2021/11/30 06:21:39;;;;;;;39.47;18.93;;;;;;;3.39;72.11;99277.02;126016;1099;104140;-80
2021/11/30 06:24:10;;;;;;;31.90;16.37;;;;;;;3.46;72.10;99273.01;126183;1099;104162;-80
2021/11/30 06:26:41;;;;;;;31.97;13.70;;;;;;;3.56;72.79;99274.29;125207;1099;104294;-79
2021/11/30 06:29:12;;;;;;;33.30;15.93;;;;;;;3.64;71.98;99265.12;125214;1102;104307;-82
2021/11/30 06:31:45;;;;;;;33.13;17.43;;;;;;;3.75;71.61;99266.47;125210;1099;104286;-81
2021/11/30 06:34:19;;;;;;;36.07;19.50;;;;;;;3.89;71.63;99269.66;125174;1099;104159;-81
2021/11/30 06:36:49;;;;;;;;;;;;;;;4.01;72.11;99258.92;125113;1099;104401;-82
2021/11/30 06:39:22;;;;;;;38.53;20.20;;;;;;;4.10;72.27;99254.11;125159;1099;104441;-81
2021/11/30 06:41:54;;;;;;;37.13;19.53;;;;;;;4.21;72.13;99238.09;125159;1099;104159;-82
2021/11/30 06:44:25;;;;;;;41.17;19.10;;;;;;;4.23;72.34;99239.91;125186;1099;104178;-82
2021/11/30 06:46:56;;;;;;;42.23;20.80;;;;;;;4.30;71.75;99243.63;125803;1099;104326;-83
2021/11/30 06:49:30;;;;;;;38.20;18.73;;;;;;;4.37;71.94;99242.20;125872;1099;102660;-81
2021/11/30 06:52:03;;;;;;;40.10;20.02;;;;;;;4.36;70.97;99250.80;125793;1099;104184;-82
2021/11/30 06:54:43;;;;;;;32.17;17.27;;;;;;;4.40;71.45;99244.91;125869;1099;104300;-80
2021/11/30 06:57:16;;;;;;;33.97;14.63;;;;;;;4.49;71.73;99250.48;125236;1099;104185;-80
2021/11/30 06:59:48;;;;;;;25.15;12.18;;;;;;;4.54;71.42;99251.54;125911;1099;104230;-80
2021/11/30 07:02:23;;;;;;;21.00;9.83;;;;;;;4.60;71.52;99256.98;125920;1099;104583;-78
2021/11/30 07:05:01;;;;;;;20.13;9.50;;;;;;;4.64;71.08;99258.88;126009;1099;104175;-80
2021/11/30 07:07:45;;;;;;;21.93;9.83;;;;;;;4.62;70.77;99255.31;126077;1099;104175;-79
2021/11/30 07:10:34;;;;;;;22.47;9.47;;;;;;;4.61;70.68;99258.77;126208;1099;104190;-78
2021/11/30 07:15:55;;;;;;;25.10;10.27;;;;;;;4.68;71.18;99255.56;126029;1099;104673;-78
2021/11/30 07:18:27;;;;;;;20.93;8.93;;;;;;;4.73;70.76;99273.05;126056;1099;104162;-80
2021/11/30 07:21:02;;;;;;;;;;;;;;;4.71;69.74;99272.12;126004;1099;104153;-81
2021/11/30 07:23:37;;;;;;;14.93;6.73;;;;;;;4.67;69.82;99297.07;125893;1099;104313;-80
2021/11/30 07:26:12;;;;;;;20.60;7.90;;;;;;;4.61;69.41;99305.53;125897;1099;104402;-80
2021/11/30 07:28:51;;;;;;;17.33;7.23;;;;;;;4.55;67.62;99314.77;125774;1098;104284;-80
2021/11/30 07:31:23;;;;;;;16.57;6.97;;;;;;;4.52;68.47;99320.75;125970;1099;104152;-77
2021/11/30 07:34:01;;;;;;;20.40;7.70;;;;;;;4.53;69.16;99322.50;126037;1099;104200;-77
2021/11/30 07:36:35;;;;;;;20.57;7.50;;;;;;;4.51;69.11;99334.55;125841;1099;104290;-78
2021/11/30 07:39:11;;;;;;;17.60;7.10;;;;;;;4.50;68.81;99330.16;125900;1099;104140;-79
2021/11/30 07:41:45;;;;;;;15.80;7.10;;;;;;;4.49;68.83;99328.41;126048;1099;104136;-78
2021/11/30 07:44:17;;;;;;;19.15;8.45;;;;;;;4.47;68.52;99332.63;125870;1099;104867;-78
2021/11/30 07:46:52;;;;;;;15.70;7.07;;;;;;;4.45;67.27;99340.36;125881;1099;104281;-78
2021/11/30 07:49:24;;;;;;;16.73;6.93;;;;;;;4.43;67.73;99342.02;126027;1099;104182;-77
2021/11/30 07:52:00;;;;;;;26.57;10.37;;;;;;;4.46;67.68;99351.66;126029;1098;104242;-77
2021/11/30 07:54:39;;;;;;;16.90;6.93;;;;;;;4.48;68.21;99358.67;126102;1099;104162;-77
2021/11/30 07:57:13;;;;;;;18.10;7.00;;;;;;;4.48;67.68;99365.59;126060;1099;104223;-78
2021/11/30 07:59:45;;;;;;;17.75;7.10;;;;;;;4.49;67.65;99362.19;126185;1099;104146;-78
2021/11/30 08:02:22;;;;;;;16.50;7.57;;;;;;;4.49;67.92;99368.25;126141;1099;104146;-79
2021/11/30 08:05:02;;;;;;;19.40;8.25;;;;;;;4.44;67.44;99368.87;126118;1099;104284;-78
2021/11/30 08:07:44;;;;;;;22.90;8.90;;;;;;;4.39;66.91;99367.80;125989;1099;104229;-78
2021/11/30 08:10:28;;;;;;;18.55;8.00;;;;;;;4.34;66.98;99369.33;125905;1099;104207;-78
2021/11/30 08:13:01;;;;;;;19.90;7.50;;;;;;;4.34;66.65;99369.33;126254;1099;104671;-77
2021/11/30 08:15:36;;;;;;;20.67;7.50;;;;;;;4.30;66.06;99369.20;126078;1098;104384;-78
2021/11/30 08:18:23;;;;;;;21.87;8.07;;;;;;;4.29;66.82;99363.94;125831;1099;104313;-78
2021/11/30 08:21:27;;;;;;;20.10;8.27;;;;;;;4.27;66.20;99365.56;126015;1098;104146;-78
2021/11/30 08:24:20;;;;;;;21.90;9.07;;;;;;;4.26;65.37;99362.09;126157;1098;104146;-79
2021/11/30 08:26:54;;;;;;;22.57;9.00;;;;;;;4.24;65.27;99352.45;126030;1099;104182;-78
2021/11/30 08:29:25;;;;;;;22.03;9.47;;;;;;;4.31;66.74;99362.28;125988;1099;104402;-79
2021/11/30 08:31:59;;;;;;;21.07;9.10;;;;;;;4.37;66.23;99346.95;125802;1099;104309;-77
2021/11/30 08:34:43;;;;;;;18.93;8.10;;;;;;;4.39;65.33;99345.30;126015;1099;103977;-79
2021/11/30 08:40:26;;;;;;;24.17;9.37;;;;;;;4.42;65.79;99334.17;125937;1099;104242;-78
2021/11/30 08:43:01;;;;;;;22.37;10.07;;;;;;;4.46;65.81;99326.56;126082;1098;104377;-78
2021/11/30 08:45:41;;;;;;;22.23;9.60;;;;;;;4.50;65.70;99327.56;125861;1099;104191;-78
2021/11/30 08:48:13;;;;;;;24.40;9.90;;;;;;;4.50;65.30;99328.47;125813;1099;105435;-77
2021/11/30 08:50:45;;;;;;;20.93;9.73;;;;;;;4.49;65.43;99320.63;125870;1099;104146;-78
2021/11/30 08:53:18;;;;;;;20.53;9.50;;;;;;;4.49;65.44;99316.30;126147;1099;104251;-78
2021/11/30 08:55:53;;;;;;;21.57;9.40;;;;;;;4.48;65.53;99308.44;126143;1099;104248;-79
2021/11/30 08:58:28;;;;;;;22.43;9.87;;;;;;;4.50;65.54;99306.78;126119;1098;104146;-78
2021/11/30 09:00:59;;;;;;;23.87;9.97;;;;;;;4.53;65.32;99308.63;126085;1097;104153;-79
2021/11/30 09:03:33;;;;;;;23.27;10.97;;;;;;;4.54;65.20;99315.61;125930;1098;104178;-79
2021/11/30 09:06:09;;;;;;;28.57;10.07;;;;;;;4.55;64.21;99320.88;126158;1099;104169;-79
2021/11/30 09:08:40;;;;;;;23.05;10.10;;;;;;;4.55;64.83;99313.08;126149;1099;104236;-80
2021/11/30 09:11:11;;;;;;;21.40;9.70;;;;;;;4.57;65.21;99294.95;126242;1099;104331;-80
2021/11/30 09:14:08;;;;;;;23.50;10.07;;;;;;;4.63;65.24;99290.00;126217;1099;104198;-78
2021/11/30 09:16:41;;;;;;;26.30;10.17;;;;;;;4.67;65.26;99292.78;126195;1099;104316;-79
2021/11/30 09:19:17;;;;;;;23.93;9.43;;;;;;;4.67;62.87;99274.59;126137;1099;104284;-80
2021/11/30 09:21:49;;;;;;;23.73;10.87;;;;;;;4.74;64.14;99269.64;126087;1099;104374;-80
2021/11/30 09:24:21;;;;;;;21.90;9.77;;;;;;;4.80;64.01;99275.05;126190;1099;102442;-81
2021/11/30 09:26:56;;;;;;;24.40;9.93;;;;;;;4.80;63.61;99270.76;126137;1099;104217;-80
2021/11/30 09:29:31;;;;;;;22.73;9.77;;;;;;;4.75;62.25;99264.47;126096;1099;104137;-80
2021/11/30 09:32:03;;;;;;;19.87;8.97;;;;;;;4.80;62.47;99260.36;126193;1099;104188;-80
2021/11/30 09:34:42;;;;;;;17.33;7.73;;;;;;;4.80;61.90;99267.25;126207;1099;104171;-81
2021/11/30 09:37:17;;;;;;;17.47;7.17;;;;;;;4.77;60.74;99264.53;125962;1099;104169;-80
2021/11/30 09:39:51;;;;;;;20.37;7.97;;;;;;;4.76;60.13;99248.06;126142;1099;104198;-80
2021/11/30 09:42:32;;;;;;;19.30;8.23;;;;;;;4.77;61.46;99249.84;125984;1099;104171;-80
2021/11/30 09:45:11;;;;;;;19.05;8.73;;;;;;;4.83;62.43;99249.17;125945;1099;104137;-79
2021/11/30 09:47:45;;;;;;;19.00;8.30;;;;;;;4.86;60.62;99241.50;125924;1099;104302;-79
2021/11/30 09:50:23;;;;;;;15.33;7.33;;;;;;;4.88;59.91;99250.27;125842;1099;104235;-78
2021/11/30 09:52:56;;;;;;;18.27;8.50;;;;;;;4.89;60.42;99241.61;126076;1099;104194;-78
2021/11/30 09:55:29;;;;;;;21.80;8.60;;;;;;;4.96;61.49;99237.55;125199;1099;104210;-78
2021/11/30 09:58:03;;;;;;;18.17;7.43;;;;;;;4.98;58.69;99226.37;125990;1099;104194;-77
2021/11/30 10:00:38;;;;;;;16.35;7.70;;;;;;;5.04;60.76;99218.80;126099;1099;104274;-78
2021/11/30 10:03:09;;;;;;;18.97;7.77;;;;;;;5.08;59.98;99219.81;126118;1099;104251;-79
2021/11/30 10:05:41;;;;;;;19.13;8.30;;;;;;;5.14;60.72;99222.64;126252;1099;104271;-79
2021/11/30 10:08:28;;;;;;;14.67;6.80;;;;;;;5.13;58.71;99212.19;126131;1099;104245;-78
2021/11/30 10:11:03;;;;;;;18.83;8.50;;;;;;;5.16;61.24;99191.50;126028;1099;104137;-79
2021/11/30 10:13:36;;;;;;;18.40;7.90;;;;;;;5.18;60.28;99189.83;126040;1099;104242;-78
2021/11/30 10:16:09;;;;;;;19.93;8.53;;;;;;;5.18;59.71;99179.42;126096;1099;104297;-77
2021/11/30 10:18:44;;;;;;;20.50;8.50;;;;;;;5.18;59.93;99159.49;126157;1099;104281;-77
2021/11/30 10:21:23;;;;;;;18.40;7.63;;;;;;;5.20;60.56;99152.66;125967;1098;104188;-77
2021/11/30 10:24:01;;;;;;;15.40;7.30;;;;;;;5.20;59.36;99143.95;126146;1099;104287;-77
2021/11/30 10:26:35;;;;;;;16.77;7.30;;;;;;;5.21;60.43;99137.92;126082;1099;104248;-80
2021/11/30 10:29:22;;;;;;;17.20;7.70;;;;;;;5.23;59.90;99125.84;125990;1099;104166;-79
2021/11/30 10:31:57;;;;;;;17.20;7.40;;;;;;;5.25;60.19;99120.70;125965;1098;104211;-80
2021/11/30 10:34:33;;;;;;;19.83;7.93;;;;;;;5.27;59.76;99127.73;125915;1099;104258;-78
2021/11/30 10:37:15;;;;;;;18.10;7.30;;;;;;;5.31;59.71;99129.59;126081;1099;105323;-78
2021/11/30 10:39:49;;;;;;;17.47;7.63;;;;;;;5.36;60.53;99134.95;126097;1097;104637;-79
2021/11/30 10:42:25;;;;;;;14.73;6.87;;;;;;;5.38;59.97;99141.11;125785;1099;104169;-79
2021/11/30 10:45:25;;;;;;;17.10;6.67;;;;;;;5.39;58.97;99148.97;125798;1099;104319;-79
2021/11/30 10:48:19;;;;;;;15.47;6.93;;;;;;;5.43;58.12;99156.88;126032;1099;104163;-80
2021/11/30 10:50:57;;;;;;;15.53;6.40;;;;;;;5.48;57.44;99155.31;126021;1099;104211;-81
2021/11/30 10:53:34;;;;;;;14.80;6.20;;;;;;;5.53;58.16;99167.66;125872;1099;104146;-79
2021/11/30 10:56:10;;;;;;;12.97;5.33;;;;;;;5.58;55.71;99178.23;126065;1099;104208;-79
2021/11/30 10:58:40;;;;;;;;;;;;;;;5.57;53.58;99173.84;126005;1099;104178;-80
2021/11/30 11:01:19;;;;;;;15.47;6.70;;;;;;;5.69;57.58;99178.60;126038;1099;104455;-79
2021/11/30 11:04:03;;;;;;;12.33;5.60;;;;;;;5.73;56.79;99178.76;125883;1099;104261;-79
2021/11/30 11:06:39;;;;;;;14.53;6.57;;;;;;;5.78;57.05;99184.12;125903;1099;104297;-79
2021/11/30 11:09:38;;;;;;;13.87;6.47;;;;;;;5.87;56.91;99186.13;126015;1099;104140;-78
2021/11/30 11:12:12;;;;;;;13.90;6.00;;;;;;;5.84;53.59;99202.52;125971;1099;104139;-78
2021/11/30 11:14:49;;;;;;;14.80;5.87;;;;;;;5.85;54.19;99204.30;126055;1099;104223;-78
2021/11/30 11:17:35;;;;;;;13.17;6.13;;;;;;;5.87;55.76;99192.20;125881;1099;104280;-80
2021/11/30 11:20:07;;;;;;;13.87;6.23;;;;;;;5.89;55.35;99184.45;125878;1099;104182;-79
2021/11/30 11:22:56;;;;;;;12.87;5.83;;;;;;;5.90;54.69;99174.08;126086;1098;104146;-79
2021/11/30 11:25:32;;;;;;;17.40;7.40;;;;;;;5.94;56.43;99180.30;126077;1099;104229;-78
2021/11/30 11:28:08;;;;;;;16.80;7.00;;;;;;;5.95;55.45;99171.63;126046;1099;104204;-77
2021/11/30 11:30:40;;;;;;;16.07;6.70;;;;;;;5.98;55.42;99169.16;125845;1099;104246;-78
2021/11/30 11:33:23;;;;;;;15.30;5.90;;;;;;;6.02;54.74;99173.64;126003;1099;104246;-79
2021/11/30 11:40:02;;;;;;;15.00;5.65;;;;;;;6.02;53.58;99168.44;124831;1105;104184;-80
2021/11/30 11:42:35;;;;;;;12.47;5.47;;;;;;;6.00;52.77;99164.00;124772;1105;104306;-81
2021/11/30 11:45:07;;;;;;;14.90;6.03;;;;;;;6.06;53.56;99169.41;124804;1105;104235;-80
2021/11/30 11:47:38;;;;;;;16.20;6.03;;;;;;;6.09;54.66;99160.00;124896;1105;104181;-80
2021/11/30 11:50:16;;;;;;;15.40;5.67;;;;;;;6.08;53.39;99152.14;125005;1105;104271;-80
2021/11/30 12:16:16;;;;;;;14.63;5.50;;;;;;;6.26;52.52;99131.88;124958;1102;105031;-79
2021/11/30 12:18:53;;;;;;;17.23;6.60;;;;;;;6.35;53.79;99131.27;125279;1102;104357;-80